sensor_id;sensor_type;location;lat;lon;timestamp;pressure;altitude;pressure_sealevel;temperature;humidity
51249;BME280;39642;47.556;18.728;2023-11-21T00:00:14;99101.78;;;21.07;39.61
51249;BME280;39642;47.556;18.728;2023-11-21T00:02:41;99104.41;;;21.07;39.72
51249;BME280;39642;47.556;18.728;2023-11-21T00:05:11;99108.87;;;21.06;39.72
51249;BME280;39642;47.556;18.728;2023-11-21T00:07:40;99097.44;;;21.06;39.62
51249;BME280;39642;47.556;18.728;2023-11-21T00:10:07;99099.22;;;21.05;39.67
51249;BME280;39642;47.556;18.728;2023-11-21T00:12:36;99101.03;;;21.05;39.71
51249;BME280;39642;47.556;18.728;2023-11-21T00:15:03;99103.69;;;21.05;39.64
51249;BME280;39642;47.556;18.728;2023-11-21T00:17:34;99098.50;;;21.03;39.71
51249;BME280;39642;47.556;18.728;2023-11-21T00:20:00;99101.16;;;21.03;39.79
51249;BME280;39642;47.556;18.728;2023-11-21T00:22:26;99102.09;;;21.02;39.59
51249;BME280;39642;47.556;18.728;2023-11-21T00:24:52;99088.03;;;21.02;39.64
51249;BME280;39642;47.556;18.728;2023-11-21T00:27:18;99109.09;;;21.03;39.51
51249;BME280;39642;47.556;18.728;2023-11-21T00:29:44;99102.94;;;21.03;39.47
51249;BME280;39642;47.556;18.728;2023-11-21T00:32:10;99102.94;;;21.03;39.47
51249;BME280;39642;47.556;18.728;2023-11-21T00:34:35;99105.50;;;21.04;39.42
51249;BME280;39642;47.556;18.728;2023-11-21T00:37:01;99115.09;;;21.05;39.45
51249;BME280;39642;47.556;18.728;2023-11-21T00:39:28;99116.81;;;21.06;39.32
51249;BME280;39642;47.556;18.728;2023-11-21T00:41:54;99123.78;;;21.07;39.23
51249;BME280;39642;47.556;18.728;2023-11-21T00:44:20;99128.97;;;21.09;39.22
51249;BME280;39642;47.556;18.728;2023-11-21T00:46:46;99124.53;;;21.09;39.14
51249;BME280;39642;47.556;18.728;2023-11-21T00:49:11;99132.37;;;21.11;39.14
51249;BME280;39642;47.556;18.728;2023-11-21T00:51:37;99131.41;;;21.12;39.14
51249;BME280;39642;47.556;18.728;2023-11-21T00:54:03;99119.88;;;21.13;39.07
51249;BME280;39642;47.556;18.728;2023-11-21T00:56:32;99115.41;;;21.13;39.01
51249;BME280;39642;47.556;18.728;2023-11-21T00:58:59;99117.13;;;21.14;39.05
51249;BME280;39642;47.556;18.728;2023-11-21T01:01:25;99129.38;;;21.15;38.96
51249;BME280;39642;47.556;18.728;2023-11-21T01:03:51;99127.72;;;21.14;38.99
51249;BME280;39642;47.556;18.728;2023-11-21T01:06:17;99124.19;;;21.14;38.98
51249;BME280;39642;47.556;18.728;2023-11-21T01:08:43;99118.91;;;21.14;38.93
51249;BME280;39642;47.556;18.728;2023-11-21T01:11:10;99122.41;;;21.14;39.00
51249;BME280;39642;47.556;18.728;2023-11-21T01:13:38;99116.16;;;21.15;38.98
51249;BME280;39642;47.556;18.728;2023-11-21T01:16:05;99113.59;;;21.14;39.05
51249;BME280;39642;47.556;18.728;2023-11-21T01:18:32;99110.13;;;21.13;39.00
51249;BME280;39642;47.556;18.728;2023-11-21T01:20:58;99115.41;;;21.13;38.99
51249;BME280;39642;47.556;18.728;2023-11-21T01:23:26;99117.22;;;21.13;38.91
51249;BME280;39642;47.556;18.728;2023-11-21T01:25:53;99112.88;;;21.12;38.92
51249;BME280;39642;47.556;18.728;2023-11-21T01:28:18;99101.44;;;21.11;38.95
51249;BME280;39642;47.556;18.728;2023-11-21T01:30:45;99094.47;;;21.10;39.04
51249;BME280;39642;47.556;18.728;2023-11-21T01:33:11;99085.69;;;21.10;38.92
51249;BME280;39642;47.556;18.728;2023-11-21T01:35:37;99093.72;;;21.08;38.97
51249;BME280;39642;47.556;18.728;2023-11-21T01:38:03;99092.88;;;21.08;38.92
51249;BME280;39642;47.556;18.728;2023-11-21T01:40:34;99085.87;;;21.07;39.17
51249;BME280;39642;47.556;18.728;2023-11-21T01:43:00;99093.81;;;21.07;39.02
51249;BME280;39642;47.556;18.728;2023-11-21T01:45:29;99083.25;;;21.07;38.90
51249;BME280;39642;47.556;18.728;2023-11-21T01:47:57;99077.09;;;21.06;39.03
51249;BME280;39642;47.556;18.728;2023-11-21T01:50:24;99087.69;;;21.06;38.98
51249;BME280;39642;47.556;18.728;2023-11-21T01:52:50;99082.50;;;21.05;38.82
51249;BME280;39642;47.556;18.728;2023-11-21T01:55:17;99079.84;;;21.05;39.05
51249;BME280;39642;47.556;18.728;2023-11-21T01:57:46;99075.41;;;21.05;38.97
51249;BME280;39642;47.556;18.728;2023-11-21T02:00:13;99070.97;;;21.06;38.68
51249;BME280;39642;47.556;18.728;2023-11-21T02:02:43;99070.00;;;21.07;38.69
51249;BME280;39642;47.556;18.728;2023-11-21T02:05:19;99072.66;;;21.07;38.60
51249;BME280;39642;47.556;18.728;2023-11-21T02:07:46;99068.94;;;21.09;38.54
51249;BME280;39642;47.556;18.728;2023-11-21T02:10:15;99071.59;;;21.09;38.51
51249;BME280;39642;47.556;18.728;2023-11-21T02:12:41;99062.69;;;21.10;38.47
51249;BME280;39642;47.556;18.728;2023-11-21T02:15:13;99066.09;;;21.12;38.34
51249;BME280;39642;47.556;18.728;2023-11-21T02:17:49;99064.28;;;21.13;38.32
51249;BME280;39642;47.556;18.728;2023-11-21T02:20:17;99060.66;;;21.14;38.28
51249;BME280;39642;47.556;18.728;2023-11-21T02:22:56;99064.03;;;21.16;38.22
51249;BME280;39642;47.556;18.728;2023-11-21T02:25:26;99064.78;;;21.18;38.21
51249;BME280;39642;47.556;18.728;2023-11-21T02:27:56;99066.59;;;21.17;38.25
51249;BME280;39642;47.556;18.728;2023-11-21T02:30:22;99051.53;;;21.18;38.17
51249;BME280;39642;47.556;18.728;2023-11-21T02:32:48;99054.09;;;21.19;38.07
51249;BME280;39642;47.556;18.728;2023-11-21T02:35:14;99042.53;;;21.20;38.13
51249;BME280;39642;47.556;18.728;2023-11-21T02:37:41;99051.34;;;21.21;38.11
51249;BME280;39642;47.556;18.728;2023-11-21T02:40:09;99038.19;;;21.19;38.15
51249;BME280;39642;47.556;18.728;2023-11-21T02:42:35;99047.81;;;21.20;38.11
51249;BME280;39642;47.556;18.728;2023-11-21T02:45:01;99040.84;;;21.19;38.14
51249;BME280;39642;47.556;18.728;2023-11-21T02:47:27;99036.38;;;21.20;38.01
51249;BME280;39642;47.556;18.728;2023-11-21T02:49:53;99033.00;;;21.18;38.09
51249;BME280;39642;47.556;18.728;2023-11-21T02:52:19;99035.75;;;21.16;38.07
51249;BME280;39642;47.556;18.728;2023-11-21T02:54:44;99041.91;;;21.17;38.13
51249;BME280;39642;47.556;18.728;2023-11-21T02:57:10;99038.41;;;21.16;38.11
51249;BME280;39642;47.556;18.728;2023-11-21T02:59:36;99034.91;;;21.16;38.07
51249;BME280;39642;47.556;18.728;2023-11-21T03:02:02;99036.72;;;21.15;38.09
51249;BME280;39642;47.556;18.728;2023-11-21T03:04:28;99032.41;;;21.14;38.33
51249;BME280;39642;47.556;18.728;2023-11-21T03:06:54;99019.16;;;21.14;38.12
51249;BME280;39642;47.556;18.728;2023-11-21T03:09:20;99017.47;;;21.13;38.24
51249;BME280;39642;47.556;18.728;2023-11-21T03:11:46;99015.66;;;21.14;38.06
51249;BME280;39642;47.556;18.728;2023-11-21T03:14:12;99005.19;;;21.12;38.14
51249;BME280;39642;47.556;18.728;2023-11-21T03:16:38;99007.94;;;21.11;38.05
51249;BME280;39642;47.556;18.728;2023-11-21T03:19:04;99001.81;;;21.10;38.33
51249;BME280;39642;47.556;18.728;2023-11-21T03:21:30;99002.75;;;21.09;38.20
51249;BME280;39642;47.556;18.728;2023-11-21T03:23:56;99005.41;;;21.09;38.13
51249;BME280;39642;47.556;18.728;2023-11-21T03:26:22;99002.75;;;21.09;38.20
51249;BME280;39642;47.556;18.728;2023-11-21T03:28:48;98995.69;;;21.10;38.00
51249;BME280;39642;47.556;18.728;2023-11-21T03:31:15;98992.16;;;21.09;38.06
51249;BME280;39642;47.556;18.728;2023-11-21T03:33:42;98995.69;;;21.10;37.95
51249;BME280;39642;47.556;18.728;2023-11-21T03:36:08;98990.25;;;21.11;37.85
51249;BME280;39642;47.556;18.728;2023-11-21T03:38:35;98987.50;;;21.13;37.73
51249;BME280;39642;47.556;18.728;2023-11-21T03:41:01;98990.06;;;21.14;37.64
51249;BME280;39642;47.556;18.728;2023-11-21T03:43:28;98985.59;;;21.15;37.60
51249;BME280;39642;47.556;18.728;2023-11-21T03:45:53;98988.09;;;21.16;37.53
51249;BME280;39642;47.556;18.728;2023-11-21T03:48:19;98987.06;;;21.19;37.48
51249;BME280;39642;47.556;18.728;2023-11-21T03:50:45;98989.56;;;21.20;37.40
51249;BME280;39642;47.556;18.728;2023-11-21T03:53:12;98993.94;;;21.21;37.41
51249;BME280;39642;47.556;18.728;2023-11-21T03:55:38;99007.03;;;21.23;37.39
51249;BME280;39642;47.556;18.728;2023-11-21T03:58:04;99017.53;;;21.25;37.39
51249;BME280;39642;47.556;18.728;2023-11-21T04:00:30;99019.22;;;21.26;37.37
51249;BME280;39642;47.556;18.728;2023-11-21T04:02:56;99011.28;;;21.26;37.31
51249;BME280;39642;47.556;18.728;2023-11-21T04:05:23;99016.44;;;21.27;37.36
51249;BME280;39642;47.556;18.728;2023-11-21T04:07:49;99018.25;;;21.27;37.35
51249;BME280;39642;47.556;18.728;2023-11-21T04:10:16;99012.97;;;21.27;37.35
51249;BME280;39642;47.556;18.728;2023-11-21T04:12:42;99019.22;;;21.26;37.43
51249;BME280;39642;47.556;18.728;2023-11-21T04:15:09;99024.53;;;21.26;37.33
51249;BME280;39642;47.556;18.728;2023-11-21T04:17:35;99039.44;;;21.27;37.43
51249;BME280;39642;47.556;18.728;2023-11-21T04:20:04;99035.94;;;21.26;37.33
51249;BME280;39642;47.556;18.728;2023-11-21T04:22:36;99041.25;;;21.26;37.53
51249;BME280;39642;47.556;18.728;2023-11-21T04:25:02;99039.53;;;21.25;37.42
51249;BME280;39642;47.556;18.728;2023-11-21T04:27:28;99044.97;;;21.24;37.45
51249;BME280;39642;47.556;18.728;2023-11-21T04:29:54;99042.31;;;21.24;37.41
51249;BME280;39642;47.556;18.728;2023-11-21T04:32:19;99045.91;;;21.23;37.40
51249;BME280;39642;47.556;18.728;2023-11-21T04:34:45;99055.66;;;21.22;37.57
51249;BME280;39642;47.556;18.728;2023-11-21T04:37:11;99054.81;;;21.21;37.45
51249;BME280;39642;47.556;18.728;2023-11-21T04:39:37;99054.91;;;21.20;37.54
51249;BME280;39642;47.556;18.728;2023-11-21T04:42:03;99054.91;;;21.20;37.60
51249;BME280;39642;47.556;18.728;2023-11-21T04:44:29;99049.72;;;21.18;37.47
51249;BME280;39642;47.556;18.728;2023-11-21T04:46:55;99060.31;;;21.18;37.52
51249;BME280;39642;47.556;18.728;2023-11-21T04:49:21;99061.28;;;21.17;37.70
51249;BME280;39642;47.556;18.728;2023-11-21T04:51:47;99054.28;;;21.16;37.75
51249;BME280;39642;47.556;18.728;2023-11-21T04:54:13;99056.94;;;21.16;37.44
51249;BME280;39642;47.556;18.728;2023-11-21T04:56:38;99047.31;;;21.15;37.75
51249;BME280;39642;47.556;18.728;2023-11-21T04:59:04;99057.91;;;21.15;37.46
51249;BME280;39642;47.556;18.728;2023-11-21T05:01:30;99044.66;;;21.15;37.53
51249;BME280;39642;47.556;18.728;2023-11-21T05:03:56;99052.72;;;21.14;37.60
51249;BME280;39642;47.556;18.728;2023-11-21T05:06:22;99043.84;;;21.15;37.68
51249;BME280;39642;47.556;18.728;2023-11-21T05:08:49;99043.00;;;21.14;37.97
51249;BME280;39642;47.556;18.728;2023-11-21T05:11:25;99062.38;;;21.15;37.48
51249;BME280;39642;47.556;18.728;2023-11-21T05:13:51;99048.28;;;21.14;37.57
51249;BME280;39642;47.556;18.728;2023-11-21T05:16:17;99072.94;;;21.15;37.42
51249;BME280;39642;47.556;18.728;2023-11-21T05:18:43;99072.13;;;21.14;37.41
51249;BME280;39642;47.556;18.728;2023-11-21T05:21:09;99069.34;;;21.16;37.37
51249;BME280;39642;47.556;18.728;2023-11-21T05:23:35;99069.34;;;21.16;37.36
51249;BME280;39642;47.556;18.728;2023-11-21T05:26:01;99057.66;;;21.18;37.36
51249;BME280;39642;47.556;18.728;2023-11-21T05:28:27;99062.03;;;21.19;37.25
51249;BME280;39642;47.556;18.728;2023-11-21T05:30:52;99071.53;;;21.22;37.20
51249;BME280;39642;47.556;18.728;2023-11-21T05:33:19;99064.44;;;21.23;37.29
51249;BME280;39642;47.556;18.728;2023-11-21T05:35:44;99073.13;;;21.25;37.31
51249;BME280;39642;47.556;18.728;2023-11-21T05:38:10;99066.88;;;21.26;37.26
51249;BME280;39642;47.556;18.728;2023-11-21T05:40:37;99073.84;;;21.27;37.28
51249;BME280;39642;47.556;18.728;2023-11-21T05:43:03;99074.59;;;21.29;37.16
51249;BME280;39642;47.556;18.728;2023-11-21T05:45:30;99076.28;;;21.30;37.65
51249;BME280;39642;47.556;18.728;2023-11-21T05:47:58;99090.25;;;21.32;38.28
51249;BME280;39642;47.556;18.728;2023-11-21T05:50:24;99095.69;;;21.30;38.24
51249;BME280;39642;47.556;18.728;2023-11-21T05:52:50;99092.06;;;21.31;38.14
51249;BME280;39642;47.556;18.728;2023-11-21T05:55:16;99089.06;;;21.36;38.32
51249;BME280;39642;47.556;18.728;2023-11-21T05:57:43;99093.13;;;21.41;38.67
51249;BME280;39642;47.556;18.728;2023-11-21T06:00:11;99096.50;;;21.44;39.88
51249;BME280;39642;47.556;18.728;2023-11-21T06:02:52;99091.91;;;21.46;39.23
51249;BME280;39642;47.556;18.728;2023-11-21T06:05:21;99097.09;;;21.47;38.72
51249;BME280;39642;47.556;18.728;2023-11-21T06:07:49;99111.09;;;21.49;38.71
51249;BME280;39642;47.556;18.728;2023-11-21T06:10:15;99115.53;;;21.49;38.51
51249;BME280;39642;47.556;18.728;2023-11-21T06:12:43;99122.75;;;21.47;38.53
51249;BME280;39642;47.556;18.728;2023-11-21T06:15:10;99136.84;;;21.47;38.72
51249;BME280;39642;47.556;18.728;2023-11-21T06:17:39;99144.88;;;21.46;38.78
51249;BME280;39642;47.556;18.728;2023-11-21T06:20:07;99147.53;;;21.46;38.86
51249;BME280;39642;47.556;18.728;2023-11-21T06:22:44;99153.81;;;21.45;38.97
51249;BME280;39642;47.556;18.728;2023-11-21T06:25:12;99161.75;;;21.45;39.63
51249;BME280;39642;47.556;18.728;2023-11-21T06:27:46;99172.56;;;21.41;39.93
51249;BME280;39642;47.556;18.728;2023-11-21T06:30:17;99173.41;;;21.42;41.10
51249;BME280;39642;47.556;18.728;2023-11-21T06:32:45;99167.12;;;21.43;41.03
51249;BME280;39642;47.556;18.728;2023-11-21T06:35:11;99168.72;;;21.46;40.81
51249;BME280;39642;47.556;18.728;2023-11-21T06:37:38;99167.28;;;21.41;40.53
51249;BME280;39642;47.556;18.728;2023-11-21T06:40:05;99173.81;;;21.36;40.25
51249;BME280;39642;47.556;18.728;2023-11-21T06:42:32;99169.69;;;21.32;40.98
51249;BME280;39642;47.556;18.728;2023-11-21T06:44:59;99169.81;;;21.30;40.74
51249;BME280;39642;47.556;18.728;2023-11-21T06:47:25;99176.28;;;21.26;40.05
51249;BME280;39642;47.556;18.728;2023-11-21T06:49:52;99182.09;;;21.18;40.44
51249;BME280;39642;47.556;18.728;2023-11-21T06:52:18;99184.97;;;21.15;39.81
51249;BME280;39642;47.556;18.728;2023-11-21T06:54:45;99180.66;;;21.14;41.16
51249;BME280;39642;47.556;18.728;2023-11-21T06:57:11;99176.06;;;21.16;40.92
51249;BME280;39642;47.556;18.728;2023-11-21T06:59:37;99172.59;;;21.16;40.55
51249;BME280;39642;47.556;18.728;2023-11-21T07:02:03;99169.84;;;21.17;40.86
51249;BME280;39642;47.556;18.728;2023-11-21T07:04:33;99172.81;;;21.13;40.25
51249;BME280;39642;47.556;18.728;2023-11-21T07:06:59;99180.97;;;21.10;40.29
51249;BME280;39642;47.556;18.728;2023-11-21T07:09:25;99181.81;;;21.10;40.76
51249;BME280;39642;47.556;18.728;2023-11-21T07:11:54;99178.34;;;21.10;40.47
51249;BME280;39642;47.556;18.728;2023-11-21T07:14:21;99180.00;;;21.11;40.32
51249;BME280;39642;47.556;18.728;2023-11-21T07:16:47;99186.37;;;21.08;40.07
51249;BME280;39642;47.556;18.728;2023-11-21T07:19:13;99195.25;;;21.07;40.13
51249;BME280;39642;47.556;18.728;2023-11-21T07:21:40;99204.16;;;21.06;39.15
51249;BME280;39642;47.556;18.728;2023-11-21T07:24:07;99195.47;;;21.04;39.49
51249;BME280;39642;47.556;18.728;2023-11-21T07:26:34;99197.16;;;21.05;39.13
51249;BME280;39642;47.556;18.728;2023-11-21T07:29:01;99201.41;;;21.08;39.15
51249;BME280;39642;47.556;18.728;2023-11-21T07:31:28;99196.00;;;21.09;38.96
51249;BME280;39642;47.556;18.728;2023-11-21T07:33:55;99199.28;;;21.13;39.12
51249;BME280;39642;47.556;18.728;2023-11-21T07:36:23;99194.00;;;21.13;39.61
51249;BME280;39642;47.556;18.728;2023-11-21T07:38:49;99198.44;;;21.12;39.31
51249;BME280;39642;47.556;18.728;2023-11-21T07:41:16;99191.25;;;21.14;38.89
51249;BME280;39642;47.556;18.728;2023-11-21T07:43:44;99187.63;;;21.15;38.76
51249;BME280;39642;47.556;18.728;2023-11-21T07:46:11;99189.31;;;21.16;38.84
51249;BME280;39642;47.556;18.728;2023-11-21T07:48:38;99199.59;;;21.21;39.08
51249;BME280;39642;47.556;18.728;2023-11-21T07:51:05;99193.09;;;21.25;40.30
51249;BME280;39642;47.556;18.728;2023-11-21T07:53:32;99188.78;;;21.24;40.13
51249;BME280;39642;47.556;18.728;2023-11-21T07:56:02;99187.72;;;21.27;39.00
51249;BME280;39642;47.556;18.728;2023-11-21T07:58:28;99182.41;;;21.27;38.77
51249;BME280;39642;47.556;18.728;2023-11-21T08:00:54;99177.87;;;21.29;39.70
51249;BME280;39642;47.556;18.728;2023-11-21T08:03:20;99172.47;;;21.30;39.76
51249;BME280;39642;47.556;18.728;2023-11-21T08:05:47;99174.03;;;21.33;39.57
51249;BME280;39642;47.556;18.728;2023-11-21T08:08:13;99168.75;;;21.33;40.01
51249;BME280;39642;47.556;18.728;2023-11-21T08:10:38;99170.44;;;21.34;40.26
51249;BME280;39642;47.556;18.728;2023-11-21T08:13:05;99178.50;;;21.32;39.47
51249;BME280;39642;47.556;18.728;2023-11-21T08:15:32;99182.19;;;21.30;39.95
51249;BME280;39642;47.556;18.728;2023-11-21T08:17:58;99177.87;;;21.29;40.17
51249;BME280;39642;47.556;18.728;2023-11-21T08:20:27;99175.22;;;21.29;39.18
51249;BME280;39642;47.556;18.728;2023-11-21T08:22:53;99167.50;;;21.26;38.94
51249;BME280;39642;47.556;18.728;2023-11-21T08:25:22;99171.09;;;21.25;38.94
51249;BME280;39642;47.556;18.728;2023-11-21T08:27:48;99174.72;;;21.24;39.74
51249;BME280;39642;47.556;18.728;2023-11-21T08:30:14;99167.69;;;21.23;39.36
51249;BME280;39642;47.556;18.728;2023-11-21T08:32:42;99167.69;;;21.23;39.71
51249;BME280;39642;47.556;18.728;2023-11-21T08:35:08;99174.72;;;21.24;39.51
51249;BME280;39642;47.556;18.728;2023-11-21T08:37:34;99174.81;;;21.22;39.46
51249;BME280;39642;47.556;18.728;2023-11-21T08:40:05;99173.13;;;21.21;40.09
51249;BME280;39642;47.556;18.728;2023-11-21T08:42:35;99169.59;;;21.20;40.05
51249;BME280;39642;47.556;18.728;2023-11-21T08:45:01;99174.91;;;21.20;40.06
51249;BME280;39642;47.556;18.728;2023-11-21T08:47:27;99178.41;;;21.21;40.03
51249;BME280;39642;47.556;18.728;2023-11-21T08:49:53;99178.53;;;21.19;40.12
51249;BME280;39642;47.556;18.728;2023-11-21T08:52:19;99175.78;;;21.21;40.92
51249;BME280;39642;47.556;18.728;2023-11-21T08:54:52;99177.34;;;21.24;40.98
51249;BME280;39642;47.556;18.728;2023-11-21T08:57:24;99169.06;;;21.28;41.12
51249;BME280;39642;47.556;18.728;2023-11-21T08:59:50;99175.94;;;21.31;41.12
51249;BME280;39642;47.556;18.728;2023-11-21T09:02:21;99177.63;;;21.32;41.43
51249;BME280;39642;47.556;18.728;2023-11-21T09:04:50;99181.84;;;21.34;41.33
51249;BME280;39642;47.556;18.728;2023-11-21T09:07:19;99178.37;;;21.34;40.50
51249;BME280;39642;47.556;18.728;2023-11-21T09:09:47;99183.78;;;21.32;40.54
51249;BME280;39642;47.556;18.728;2023-11-21T09:12:13;99177.63;;;21.32;40.65
51249;BME280;39642;47.556;18.728;2023-11-21T09:14:39;99172.34;;;21.32;40.90
51249;BME280;39642;47.556;18.728;2023-11-21T09:17:06;99173.31;;;21.31;41.76
51249;BME280;39642;47.556;18.728;2023-11-21T09:19:42;99168.09;;;21.29;41.64
51249;BME280;39642;47.556;18.728;2023-11-21T09:22:16;99168.22;;;21.28;41.80
51249;BME280;39642;47.556;18.728;2023-11-21T09:24:42;99165.56;;;21.28;41.48
51249;BME280;39642;47.556;18.728;2023-11-21T09:27:08;99167.50;;;21.26;41.65
51249;BME280;39642;47.556;18.728;2023-11-21T09:29:35;99164.94;;;21.24;41.50
51249;BME280;39642;47.556;18.728;2023-11-21T09:32:05;99152.78;;;21.21;41.52
51249;BME280;39642;47.556;18.728;2023-11-21T09:34:33;99152.97;;;21.18;41.28
51249;BME280;39642;47.556;18.728;2023-11-21T09:37:07;99157.66;;;21.15;40.70
51249;BME280;39642;47.556;18.728;2023-11-21T09:39:34;99160.75;;;21.09;40.84
51249;BME280;39642;47.556;18.728;2023-11-21T09:42:25;99156.53;;;21.06;40.79
51249;BME280;39642;47.556;18.728;2023-11-21T09:47:46;99139.47;;;20.97;40.83
51249;BME280;39642;47.556;18.728;2023-11-21T09:50:16;99144.78;;;20.97;40.83
51249;BME280;39642;47.556;18.728;2023-11-21T09:55:18;99132.37;;;20.98;40.27
51249;BME280;39642;47.556;18.728;2023-11-21T09:57:47;99130.69;;;20.97;40.00
51249;BME280;39642;47.556;18.728;2023-11-21T10:00:17;99130.91;;;20.94;39.80
51249;BME280;39642;47.556;18.728;2023-11-21T10:02:46;99131.87;;;20.93;40.02
51249;BME280;39642;47.556;18.728;2023-11-21T10:05:16;99130.19;;;20.92;40.09
51249;BME280;39642;47.556;18.728;2023-11-21T10:07:46;99126.47;;;20.94;40.66
51249;BME280;39642;47.556;18.728;2023-11-21T10:10:13;99127.22;;;20.96;40.04
51249;BME280;39642;47.556;18.728;2023-11-21T10:12:43;99121.94;;;20.96;40.15
51249;BME280;39642;47.556;18.728;2023-11-21T10:15:13;99119.38;;;20.95;40.20
51249;BME280;39642;47.556;18.728;2023-11-21T10:17:44;99122.75;;;20.97;40.73
51249;BME280;39642;47.556;18.728;2023-11-21T10:20:11;99119.06;;;20.99;40.78
51249;BME280;39642;47.556;18.728;2023-11-21T10:22:42;99110.13;;;21.00;40.76
51249;BME280;39642;47.556;18.728;2023-11-21T10:25:09;99112.69;;;21.02;40.96
51249;BME280;39642;47.556;18.728;2023-11-21T10:27:39;99111.63;;;21.05;40.88
51249;BME280;39642;47.556;18.728;2023-11-21T10:30:06;99113.31;;;21.06;41.17
51249;BME280;39642;47.556;18.728;2023-11-21T10:32:32;99115.84;;;21.07;41.68
51249;BME280;39642;47.556;18.728;2023-11-21T10:34:59;99113.00;;;21.10;41.68
51249;BME280;39642;47.556;18.728;2023-11-21T10:37:32;99118.16;;;21.12;42.02
51249;BME280;39642;47.556;18.728;2023-11-21T10:39:59;99115.41;;;21.13;42.70
51249;BME280;39642;47.556;18.728;2023-11-21T10:42:25;99111.81;;;21.14;42.66
51249;BME280;39642;47.556;18.728;2023-11-21T10:44:55;99116.87;;;21.17;42.64
51249;BME280;39642;47.556;18.728;2023-11-21T10:47:21;99105.31;;;21.18;42.31
51249;BME280;39642;47.556;18.728;2023-11-21T10:49:48;99116.06;;;21.17;42.08
51249;BME280;39642;47.556;18.728;2023-11-21T10:52:15;99110.03;;;21.15;41.67
51249;BME280;39642;47.556;18.728;2023-11-21T10:54:43;99114.88;;;21.21;42.04
51249;BME280;39642;47.556;18.728;2023-11-21T10:57:10;99107.63;;;21.23;42.21
51249;BME280;39642;47.556;18.728;2023-11-21T10:59:41;99100.66;;;21.22;42.36
51249;BME280;39642;47.556;18.728;2023-11-21T11:02:27;99091.16;;;21.19;42.09
51249;BME280;39642;47.556;18.728;2023-11-21T11:04:54;99093.91;;;21.18;42.39
51249;BME280;39642;47.556;18.728;2023-11-21T11:07:27;99087.75;;;21.17;42.02
51249;BME280;39642;47.556;18.728;2023-11-21T11:09:54;99093.81;;;21.19;41.99
51249;BME280;39642;47.556;18.728;2023-11-21T11:12:21;99081.72;;;21.15;42.01
51249;BME280;39642;47.556;18.728;2023-11-21T11:14:48;99086.19;;;21.15;41.88
51249;BME280;39642;47.556;18.728;2023-11-21T11:17:14;99099.53;;;21.13;42.06
51249;BME280;39642;47.556;18.728;2023-11-21T11:19:40;99102.19;;;21.13;42.08
51249;BME280;39642;47.556;18.728;2023-11-21T11:22:30;99102.91;;;21.15;42.02
51249;BME280;39642;47.556;18.728;2023-11-21T11:27:54;99100.78;;;21.20;41.70
51249;BME280;39642;47.556;18.728;2023-11-21T11:36:25;99083.66;;;21.13;40.76
51249;BME280;39642;47.556;18.728;2023-11-21T11:38:51;99082.81;;;21.13;41.22
51249;BME280;39642;47.556;18.728;2023-11-21T11:41:30;99078.44;;;21.12;41.24
51249;BME280;39642;47.556;18.728;2023-11-21T11:43:59;99086.19;;;21.15;42.04
51249;BME280;39642;47.556;18.728;2023-11-21T11:46:41;99077.41;;;21.14;41.87
51249;BME280;39642;47.556;18.728;2023-11-21T11:49:08;99080.47;;;21.21;42.46
51249;BME280;39642;47.556;18.728;2023-11-21T11:51:33;99081.41;;;21.20;42.20
51249;BME280;39642;47.556;18.728;2023-11-21T11:54:01;99079.59;;;21.20;42.51
51249;BME280;39642;47.556;18.728;2023-11-21T11:56:29;99075.38;;;21.18;42.69
51249;BME280;39642;47.556;18.728;2023-11-21T11:58:59;99075.25;;;21.19;43.17
51249;BME280;39642;47.556;18.728;2023-11-21T12:01:28;99071.66;;;21.20;43.26
51249;BME280;39642;47.556;18.728;2023-11-21T12:07:00;99073.22;;;21.23;44.85
51249;BME280;39642;47.556;18.728;2023-11-21T12:09:31;99069.28;;;21.29;44.99
51249;BME280;39642;47.556;18.728;2023-11-21T12:11:57;99070.22;;;21.28;45.05
51249;BME280;39642;47.556;18.728;2023-11-21T12:14:23;99073.13;;;21.25;44.49
51249;BME280;39642;47.556;18.728;2023-11-21T12:16:49;99069.63;;;21.24;44.64
51249;BME280;39642;47.556;18.728;2023-11-21T12:19:15;99064.69;;;21.19;45.34
51249;BME280;39642;47.556;18.728;2023-11-21T12:21:41;99067.31;;;21.19;45.46
51249;BME280;39642;47.556;18.728;2023-11-21T12:24:07;99070.81;;;21.20;45.48
51249;BME280;39642;47.556;18.728;2023-11-21T12:26:40;99066.34;;;21.20;45.64
51249;BME280;39642;47.556;18.728;2023-11-21T12:29:06;99056.72;;;21.19;45.69
51249;BME280;39642;47.556;18.728;2023-11-21T12:31:34;99065.50;;;21.20;46.50
51249;BME280;39642;47.556;18.728;2023-11-21T12:34:00;99060.12;;;21.21;47.00
51249;BME280;39642;47.556;18.728;2023-11-21T12:36:27;99066.16;;;21.24;47.14
51249;BME280;39642;47.556;18.728;2023-11-21T12:38:54;99059.03;;;21.24;46.10
51249;BME280;39642;47.556;18.728;2023-11-21T12:41:22;99061.44;;;21.27;47.23
51249;BME280;39642;47.556;18.728;2023-11-21T12:43:48;99056.16;;;21.27;47.39
51249;BME280;39642;47.556;18.728;2023-11-21T12:46:15;99055.09;;;21.30;47.73
51249;BME280;39642;47.556;18.728;2023-11-21T12:48:43;99055.22;;;21.28;46.65
51249;BME280;39642;47.556;18.728;2023-11-21T12:51:10;99053.41;;;21.29;47.08
51249;BME280;39642;47.556;18.728;2023-11-21T12:53:40;99053.41;;;21.29;44.98
51249;BME280;39642;47.556;18.728;2023-11-21T12:56:11;99057.88;;;21.28;45.00
51249;BME280;39642;47.556;18.728;2023-11-21T12:58:38;99058.69;;;21.29;43.75
51249;BME280;39642;47.556;18.728;2023-11-21T13:01:07;99059.44;;;21.31;44.70
51249;BME280;39642;47.556;18.728;2023-11-21T13:03:38;99058.47;;;21.32;44.99
51249;BME280;39642;47.556;18.728;2023-11-21T13:06:05;99059.44;;;21.31;47.13
51249;BME280;39642;47.556;18.728;2023-11-21T13:08:33;99066.41;;;21.32;45.21